Airfield :
LOGIN :

Register | Disclaimer

   EN    FR    IT 

 










Legend :    VFR   Marginal VFR   IFR   Intensive IFR   Very Intensive IFR
Visi :
Ceiling :
>= 8 km
>= 3000ft
5 to 8 km
1000 to 3000 ft
1500m to 5 km
500 to 1000 ft
800 to 1500m
200 to 500 ft
< 800m
< 200 ft
Symbols :   Thunderstorms  Fog  Heavy snow  Heavy precipitations  Wind > 20 kt
SIGMETs :     Misc.  Thunderstorms  Icing  Turbulence  Mountain Waves  Volcanic Ashes







- Airport Elevation : 392 ft
- IATA code : CDG
- Download approach charts


LFPG - Paris-Aeroport Charles De Gaulle

CURRENT METAR :
  • 181500Z 22013KT CAVOK 23/16 Q1016 NOSIG

EXPIRED METARs :
  • 181430Z 23012KT CAVOK 23/15 Q1016 NOSIG
  • 181400Z 23014KT CAVOK 23/15 Q1016 NOSIG
  • 181330Z 21014KT 9999 FEW023 BKN091 22/15 Q1016 NOSIG
  • 181300Z 22013KT 9999 -SHRA SCT023 SCT100 23/16 Q1016 NOSIG
  • 181230Z 21015KT 9999 VCSH SCT030 SCT120 23/16 Q1016 NOSIG
  • 181200Z 21010KT 170V240 9999 VCSH SCT030 SCT046 23/16 Q1015 NOSIG

TAF TAF LFPG
Valid from the 18 at 12:00 until the 19 at 18:00 UTC


181100Z 1812/1918 23010G20KT 9999 SCT030 TX26/1815Z TN16/1906Z
PROB40
TEMPO 1812/1815 SCT050TCU
BECMG 1818/1820 22005KT CAVOK
ATIS : +33 1 48 62 10 92
No reported NOTAMs for that airfield.
1 SIGMET reported for the Paris FIR (LFFF) :
 
Embedded thunderstorms
LFFF SIGMET 1 VALID 181330/181500 LFPW
LFFF PARIS FIR/UIR EMBD TS OBS WI N4800 E00145 - N4800 E00115 - N4915 E00300 - N4845 E00300 - N4800 E00145 TOP FL320 MOV NE 20KT NC=



MET'MAP, your aeronautical weather chart ! - Copyright ORBIFLY December 2007 - Disclaimer

ORBIFLY MET'MAP TEAM :

Programming & Development : Alexandra Zaïnal
Concept & Development : Baudouin d'Aumeries
Co-Development & Prog : Marc-Olivier Méhu
Technical & hardware support : Manuel Goepfert

Contact : metmap@orbifly.com




SOURCES & CREDITS :

   NOAA